createdAt,value
2023-10-06T00:03:45.920Z,3.60
2023-10-06T00:07:55.482Z,3.40
2023-10-06T00:12:29.862Z,3.30
2023-10-06T00:16:42.976Z,3.20
2023-10-06T00:20:51.319Z,3.60
2023-10-06T00:25:01.393Z,3.30
2023-10-06T00:29:22.192Z,3.50
2023-10-06T00:33:35.552Z,3.40
2023-10-06T00:37:45.634Z,3.10
2023-10-06T00:41:58.514Z,3.10
2023-10-06T00:46:09.146Z,3.40
2023-10-06T00:50:23.262Z,3.00
2023-10-06T00:54:31.691Z,3.50
2023-10-06T00:58:42.557Z,3.40
2023-10-06T01:02:51.612Z,3.80
2023-10-06T01:07:01.450Z,3.40
2023-10-06T01:11:13.886Z,3.50
2023-10-06T01:15:22.984Z,3.60
2023-10-06T01:19:34.757Z,3.50
2023-10-06T01:23:42.552Z,3.80
2023-10-06T01:27:54.082Z,3.80
2023-10-06T01:32:06.201Z,3.60
2023-10-06T01:36:23.402Z,4.00
2023-10-06T01:40:44.937Z,3.90
2023-10-06T01:44:53.482Z,4.20
2023-10-06T01:49:02.893Z,3.80
2023-10-06T01:53:17.987Z,4.00
2023-10-06T01:57:27.510Z,3.70
2023-10-06T02:01:36.866Z,3.70
2023-10-06T02:05:45.073Z,4.00
2023-10-06T02:09:56.690Z,4.10
2023-10-06T02:14:06.190Z,3.80
2023-10-06T02:18:14.130Z,4.00
2023-10-06T02:22:29.338Z,4.60
2023-10-06T02:26:38.599Z,4.50
2023-10-06T02:30:51.298Z,4.60
2023-10-06T02:35:00.786Z,4.10
2023-10-06T02:39:11.980Z,4.60
2023-10-06T02:43:21.979Z,4.40
2023-10-06T02:47:31.459Z,4.30
2023-10-06T02:51:48.933Z,4.40
2023-10-06T02:55:58.620Z,4.80
2023-10-06T03:00:22.301Z,4.90
2023-10-06T03:04:30.625Z,4.00
2023-10-06T03:08:39.028Z,3.90
2023-10-06T03:12:47.094Z,4.10
2023-10-06T03:16:54.971Z,3.90
2023-10-06T03:21:14.426Z,5.60
2023-10-06T03:25:23.214Z,4.40
2023-10-06T03:29:45.684Z,4.10
2023-10-06T03:33:56.424Z,4.00
2023-10-06T03:38:29.103Z,4.40
2023-10-06T03:42:38.840Z,4.20
2023-10-06T03:46:46.781Z,4.30
2023-10-06T03:50:56.122Z,4.10
2023-10-06T03:55:04.652Z,3.70
2023-10-06T03:59:17.112Z,3.80
2023-10-06T04:03:25.302Z,4.40
2023-10-06T04:07:33.600Z,4.60
2023-10-06T04:11:44.102Z,4.90
2023-10-06T04:15:54.147Z,5.20
2023-10-06T04:20:08.016Z,4.50
2023-10-06T04:24:16.150Z,4.90
2023-10-06T04:28:24.465Z,4.40
2023-10-06T04:32:32.802Z,5.60
2023-10-06T04:36:41.591Z,4.80
2023-10-06T04:40:50.245Z,5.10
2023-10-06T04:44:58.795Z,4.60
2023-10-06T04:49:09.015Z,5.40
2023-10-06T04:53:18.472Z,4.90
2023-10-06T04:57:26.004Z,4.60
2023-10-06T05:01:35.718Z,4.90
2023-10-06T05:05:44.356Z,4.70
2023-10-06T05:09:57.363Z,4.80
2023-10-06T05:14:05.361Z,4.70
2023-10-06T05:18:17.444Z,5.20
2023-10-06T05:22:25.541Z,7.80
2023-10-06T05:26:34.268Z,5.60
2023-10-06T05:30:43.171Z,5.10
2023-10-06T05:34:52.358Z,5.10
2023-10-06T05:39:03.014Z,4.40
2023-10-06T05:43:13.322Z,5.10
2023-10-06T05:47:20.949Z,5.00
2023-10-06T05:51:30.765Z,5.70
2023-10-06T05:55:39.289Z,5.40
2023-10-06T05:59:50.322Z,5.40
2023-10-06T06:03:59.463Z,5.50
2023-10-06T06:08:10.246Z,5.10
2023-10-06T06:12:21.343Z,5.80
2023-10-06T06:16:32.227Z,6.00
2023-10-06T06:20:42.813Z,5.80
2023-10-06T06:24:51.018Z,6.10
2023-10-06T06:29:04.153Z,6.10
2023-10-06T06:33:15.123Z,6.10
2023-10-06T06:37:24.477Z,6.50
2023-10-06T06:41:32.977Z,5.50
2023-10-06T06:45:42.419Z,5.80
2023-10-06T06:49:51.698Z,5.40
2023-10-06T06:53:58.818Z,5.30
2023-10-06T06:58:12.121Z,5.70
2023-10-06T07:02:21.643Z,6.00
2023-10-06T07:06:29.335Z,5.80
2023-10-06T07:10:40.432Z,5.80
2023-10-06T07:14:48.624Z,5.20
2023-10-06T07:18:56.490Z,5.80
2023-10-06T07:23:06.092Z,6.20
2023-10-06T07:27:14.465Z,6.00
2023-10-06T07:31:22.450Z,6.10
2023-10-06T07:35:39.248Z,5.30
2023-10-06T07:39:49.884Z,5.20
2023-10-06T07:43:58.594Z,5.10
2023-10-06T07:48:07.686Z,5.00
2023-10-06T07:52:15.806Z,4.90
2023-10-06T07:56:24.632Z,4.30
2023-10-06T08:00:41.905Z,4.40
2023-10-06T08:04:52.794Z,4.30
2023-10-06T08:09:00.685Z,4.00
2023-10-06T08:13:12.047Z,4.90
2023-10-06T08:17:20.848Z,4.40
2023-10-06T08:21:28.449Z,4.60
2023-10-06T08:25:49.274Z,4.80
2023-10-06T08:30:08.949Z,4.30
2023-10-06T08:34:20.183Z,3.90
2023-10-06T08:38:28.350Z,4.40
2023-10-06T08:42:36.125Z,3.70
2023-10-06T08:46:46.005Z,3.80
2023-10-06T08:50:55.103Z,4.00
2023-10-06T08:55:02.919Z,3.60
2023-10-06T08:59:12.486Z,4.20
2023-10-06T09:03:26.830Z,4.30
2023-10-06T09:07:36.678Z,4.00
2023-10-06T09:11:44.910Z,3.60
2023-10-06T09:16:04.619Z,3.60
2023-10-06T09:20:28.411Z,3.80
2023-10-06T09:24:38.218Z,3.90
2023-10-06T09:28:53.985Z,3.30
2023-10-06T09:33:07.176Z,3.00
2023-10-06T09:37:22.720Z,2.90
2023-10-06T09:41:33.777Z,3.40
2023-10-06T09:45:45.033Z,3.70
2023-10-06T09:49:53.081Z,3.90
2023-10-06T09:54:00.591Z,3.40
2023-10-06T09:58:09.189Z,4.10
2023-10-06T10:02:22.217Z,3.70
2023-10-06T10:06:32.076Z,3.30
2023-10-06T10:10:41.305Z,2.80
2023-10-06T10:15:01.072Z,3.60
2023-10-06T10:19:13.561Z,3.60
2023-10-06T10:23:21.067Z,3.40
2023-10-06T10:27:29.003Z,3.30
2023-10-06T10:31:57.678Z,3.60
2023-10-06T10:36:26.069Z,3.70
2023-10-06T10:40:48.491Z,3.60
2023-10-06T10:45:36.113Z,3.70
2023-10-06T10:49:46.140Z,3.40
2023-10-06T10:53:55.715Z,2.60
2023-10-06T10:58:05.829Z,2.80
2023-10-06T11:02:17.266Z,3.20
2023-10-06T11:06:24.961Z,3.10
2023-10-06T11:10:34.141Z,2.70
2023-10-06T11:14:43.716Z,3.40
2023-10-06T11:18:51.770Z,2.80
2023-10-06T11:23:02.186Z,2.90
2023-10-06T11:27:18.351Z,3.80
2023-10-06T11:31:29.207Z,3.60
2023-10-06T11:35:38.119Z,3.90
2023-10-06T11:39:48.457Z,4.00
2023-10-06T11:44:01.591Z,3.60
2023-10-06T11:48:27.264Z,3.30
2023-10-06T11:52:35.039Z,3.30
2023-10-06T11:56:53.742Z,3.40
2023-10-06T12:01:01.341Z,3.00
2023-10-06T12:05:16.170Z,3.20
2023-10-06T12:09:31.067Z,3.70
2023-10-06T12:13:39.319Z,3.80
2023-10-06T12:17:48.091Z,3.30
2023-10-06T12:21:56.192Z,3.60
2023-10-06T12:26:06.812Z,3.30
2023-10-06T12:30:16.028Z,3.40
2023-10-06T12:34:24.201Z,3.30
2023-10-06T12:38:32.117Z,3.30
2023-10-06T12:42:40.089Z,3.40
2023-10-06T12:46:47.860Z,3.30
2023-10-06T12:50:56.293Z,3.30
2023-10-06T12:55:07.226Z,3.40
2023-10-06T12:59:16.045Z,3.50
2023-10-06T13:03:26.365Z,3.60
2023-10-06T13:07:35.041Z,3.50
2023-10-06T13:11:44.284Z,3.60
2023-10-06T13:15:51.988Z,3.60
2023-10-06T13:19:59.984Z,3.40
2023-10-06T13:24:08.694Z,3.30
2023-10-06T13:28:19.623Z,3.60
2023-10-06T13:32:27.834Z,3.60
2023-10-06T13:36:35.951Z,3.20
2023-10-06T13:40:46.623Z,3.20
2023-10-06T13:44:55.324Z,3.00
2023-10-06T13:49:05.904Z,3.90
2023-10-06T13:53:16.599Z,3.60
2023-10-06T13:57:25.482Z,3.30
2023-10-06T14:01:36.003Z,2.90
2023-10-06T14:05:44.916Z,3.90
2023-10-06T14:09:52.835Z,3.50
2023-10-06T14:14:05.594Z,3.30
2023-10-06T14:18:15.305Z,3.40
2023-10-06T14:22:26.288Z,3.20
2023-10-06T14:26:35.482Z,3.40
2023-10-06T14:30:44.879Z,3.30
2023-10-06T14:35:13.921Z,3.10
2023-10-06T14:39:39.420Z,3.10
2023-10-06T14:44:05.654Z,2.80
2023-10-06T14:48:16.495Z,2.70
2023-10-06T14:52:25.625Z,2.90
2023-10-06T14:56:35.120Z,2.70
2023-10-06T15:00:47.706Z,2.70
2023-10-06T15:04:55.598Z,2.80
2023-10-06T15:09:04.424Z,2.80
2023-10-06T15:13:14.326Z,2.60
2023-10-06T15:17:23.765Z,3.20
2023-10-06T15:21:32.209Z,3.00
2023-10-06T15:25:41.243Z,3.40
2023-10-06T15:29:52.674Z,2.60
2023-10-06T15:34:00.535Z,2.80
2023-10-06T15:38:13.518Z,3.00
2023-10-06T15:42:22.031Z,2.90
2023-10-06T15:46:29.747Z,2.80
2023-10-06T15:50:37.151Z,2.90
2023-10-06T15:54:45.669Z,2.90
2023-10-06T15:58:57.188Z,2.70
2023-10-06T16:03:05.072Z,3.20
2023-10-06T16:07:15.350Z,2.80
2023-10-06T16:11:23.107Z,2.70
2023-10-06T16:15:30.905Z,3.00
2023-10-06T16:19:40.626Z,3.20
2023-10-06T16:23:50.964Z,3.10
2023-10-06T16:28:01.950Z,3.10
2023-10-06T16:32:11.270Z,3.10
2023-10-06T16:36:22.934Z,3.40
2023-10-06T16:40:30.723Z,3.10
2023-10-06T16:44:38.546Z,3.40
2023-10-06T16:48:47.835Z,3.10
2023-10-06T16:52:56.709Z,3.30
2023-10-06T16:57:06.199Z,3.30
2023-10-06T17:01:16.863Z,3.10
2023-10-06T17:05:27.632Z,2.90
2023-10-06T17:09:38.039Z,3.00
2023-10-06T17:13:48.772Z,3.50
2023-10-06T17:17:56.524Z,3.10
2023-10-06T17:22:06.222Z,4.40
2023-10-06T17:26:14.771Z,4.30
2023-10-06T17:30:23.438Z,4.30
2023-10-06T17:34:32.119Z,3.60
2023-10-06T17:38:41.094Z,3.30
2023-10-06T17:42:50.272Z,3.00
2023-10-06T17:46:58.232Z,3.20
2023-10-06T17:51:06.231Z,3.00
2023-10-06T17:55:14.330Z,3.50
2023-10-06T17:59:22.958Z,3.70
2023-10-06T18:03:31.188Z,3.80
2023-10-06T18:07:39.688Z,3.60
2023-10-06T18:11:57.517Z,4.20
2023-10-06T18:16:15.888Z,4.10
2023-10-06T18:20:23.837Z,4.10
2023-10-06T18:24:31.959Z,5.10
2023-10-06T18:28:39.878Z,4.20
2023-10-06T18:32:48.116Z,3.90
2023-10-06T18:36:56.786Z,3.70
2023-10-06T18:41:06.715Z,4.10
2023-10-06T18:45:15.608Z,4.80
2023-10-06T18:49:23.708Z,4.10
2023-10-06T18:53:34.223Z,3.80
2023-10-06T18:57:42.808Z,4.00
2023-10-06T19:01:50.469Z,4.30
2023-10-06T19:06:05.823Z,4.50
2023-10-06T19:10:15.242Z,4.20
2023-10-06T19:14:24.496Z,4.60
2023-10-06T19:18:32.001Z,3.60
2023-10-06T19:22:39.622Z,3.80
2023-10-06T19:26:52.177Z,3.40
2023-10-06T19:31:00.477Z,3.90
2023-10-06T19:35:10.117Z,3.50
2023-10-06T19:39:18.413Z,3.60
2023-10-06T19:43:27.410Z,4.10
2023-10-06T19:47:36.819Z,3.30
2023-10-06T19:51:46.092Z,3.80
2023-10-06T19:55:55.325Z,3.20
2023-10-06T20:00:02.894Z,3.50
2023-10-06T20:04:11.837Z,3.40
2023-10-06T20:08:19.767Z,4.00
2023-10-06T20:12:28.078Z,4.10
2023-10-06T20:16:36.669Z,3.70
2023-10-06T20:20:45.198Z,3.90
2023-10-06T20:24:53.043Z,3.80
2023-10-06T20:29:00.883Z,4.00
2023-10-06T20:33:09.596Z,3.90
2023-10-06T20:37:17.996Z,3.60
2023-10-06T20:41:26.069Z,3.90
2023-10-06T20:45:34.463Z,3.60
2023-10-06T20:49:42.318Z,4.00
2023-10-06T20:53:49.643Z,3.40
2023-10-06T20:57:58.002Z,3.50
2023-10-06T21:02:06.233Z,3.90
2023-10-06T21:06:15.602Z,4.00
2023-10-06T21:10:27.320Z,3.30
2023-10-06T21:14:35.652Z,3.80
2023-10-06T21:18:43.238Z,4.20
2023-10-06T21:22:52.070Z,3.60
2023-10-06T21:27:00.980Z,3.20
2023-10-06T21:31:09.136Z,3.40
2023-10-06T21:35:18.007Z,3.50
2023-10-06T21:39:26.548Z,3.50
2023-10-06T21:43:37.285Z,3.20
2023-10-06T21:47:45.481Z,3.10
2023-10-06T21:51:53.216Z,3.20
2023-10-06T21:56:13.022Z,3.90
2023-10-06T22:00:30.663Z,3.30
2023-10-06T22:04:38.541Z,3.30
2023-10-06T22:08:47.444Z,3.20
2023-10-06T22:13:00.634Z,3.40
2023-10-06T22:17:15.289Z,3.40
2023-10-06T22:21:23.772Z,3.20
2023-10-06T22:25:34.129Z,3.20
2023-10-06T22:29:42.039Z,3.20
2023-10-06T22:33:50.275Z,3.40
2023-10-06T22:37:58.302Z,3.00
2023-10-06T22:42:09.801Z,3.20
2023-10-06T22:46:17.887Z,3.60
2023-10-06T22:50:25.975Z,3.40
2023-10-06T22:54:35.461Z,3.70
2023-10-06T22:58:46.528Z,3.50
2023-10-06T23:02:55.936Z,3.60
2023-10-06T23:07:04.397Z,3.50
2023-10-06T23:11:15.330Z,3.50
2023-10-06T23:15:33.232Z,3.00
2023-10-06T23:19:42.940Z,3.10
2023-10-06T23:23:54.330Z,2.70
2023-10-06T23:28:08.716Z,3.10
2023-10-06T23:32:19.485Z,2.70
2023-10-06T23:36:28.015Z,2.90
2023-10-06T23:40:39.847Z,3.20
2023-10-06T23:44:49.263Z,3.30
2023-10-06T23:49:00.550Z,3.50
2023-10-06T23:53:10.609Z,3.40
2023-10-06T23:57:18.804Z,3.00
